Time;durP1;ratioP1;P1;durP2;ratioP2;P2;SDS_P1;SDS_P2;PMS_P1;PMS_P2;Temp;Humidity;BMP_temperature;BMP_pressure;BME280_temperature;BME280_humidity;BME280_pressure;Samples;Min_cycle;Max_cycle;Signal;HPM_P1;HPM_P2
2021/03/29 00:02:38;;;;;;;8.38;2.50;;;;;;;;;;5148343;22;20052;-63
2021/03/29 00:05:25;;;;;;;8.15;3.22;;;;;;;;;;5115354;28;20054;-63
2021/03/29 00:08:16;;;;;;;5.30;3.17;;;;;;;;;;5080033;28;20044;-63
2021/03/29 00:11:01;;;;;;;9.60;3.20;;;;;;;;;;5079701;28;20493;-64
2021/03/29 00:13:47;;;;;;;8.25;2.67;;;;;;;;;;5095228;28;20421;-64
2021/03/29 00:16:32;;;;;;;10.88;3.17;;;;;;;;;;5094406;28;20044;-63
2021/03/29 00:19:18;;;;;;;11.38;3.10;;;;;;;;;;5112735;28;20405;-63
2021/03/29 00:22:03;;;;;;;8.05;3.00;;;;;;;;;;5114369;28;20036;-63
2021/03/29 00:24:49;;;;;;;8.73;3.22;;;;;;;;;;5112032;28;20093;-63
2021/03/29 00:27:34;;;;;;;12.45;4.05;;;;;;;;;;5094012;28;20044;-63
2021/03/29 00:30:20;;;;;;;8.90;3.42;;;;;;;;;;5094913;28;20127;-63
2021/03/29 00:33:06;;;;;;;9.82;3.60;;;;;;;;;;5094625;28;20047;-64
2021/03/29 00:35:51;;;;;;;12.93;3.65;;;;;;;;;;5098069;28;20136;-64
2021/03/29 00:38:37;;;;;;;9.57;2.90;;;;;;;;;;5098682;28;20118;-64
2021/03/29 00:41:22;;;;;;;8.73;3.42;;;;;;;;;;5115157;28;20040;-63
2021/03/29 00:44:08;;;;;;;10.90;3.10;;;;;;;;;;5113792;28;20565;-63
2021/03/29 00:46:53;;;;;;;8.10;3.55;;;;;;;;;;5114401;28;20039;-63
2021/03/29 00:49:38;;;;;;;9.77;3.22;;;;;;;;;;5113834;28;20044;-63
2021/03/29 00:52:24;;;;;;;11.50;3.53;;;;;;;;;;5113957;28;20393;-63
2021/03/29 00:55:10;;;;;;;8.07;3.42;;;;;;;;;;5114409;28;20043;-63
2021/03/29 00:57:55;;;;;;;6.38;3.05;;;;;;;;;;5098830;28;20405;-63
2021/03/29 01:01:00;;;;;;;8.82;3.28;;;;;;;;;;5113239;28;20044;-64
2021/03/29 01:03:48;;;;;;;7.22;3.15;;;;;;;;;;5114315;28;20043;-63
2021/03/29 01:06:37;;;;;;;6.50;3.42;;;;;;;;;;5110246;28;20051;-63
2021/03/29 01:09:24;;;;;;;10.07;3.33;;;;;;;;;;5093361;28;20052;-64
2021/03/29 01:12:09;;;;;;;11.38;3.28;;;;;;;;;;5093012;28;20048;-64
2021/03/29 01:14:55;;;;;;;8.48;3.92;;;;;;;;;;5093569;28;20123;-64
2021/03/29 01:17:40;;;;;;;7.57;3.58;;;;;;;;;;5089273;28;20055;-64
2021/03/29 01:20:55;;;;;;;9.45;3.38;;;;;;;;;;5113269;28;20070;-63
2021/03/29 01:23:40;;;;;;;5.95;2.95;;;;;;;;;;5046858;28;20134;-63
2021/03/29 01:26:25;;;;;;;4.63;2.67;;;;;;;;;;5096871;28;20044;-64
2021/03/29 01:29:10;;;;;;;10.80;3.45;;;;;;;;;;5113463;28;20714;-63
2021/03/29 01:31:55;;;;;;;7.68;3.25;;;;;;;;;;5100227;28;20454;-63
2021/03/29 01:34:41;;;;;;;6.25;3.10;;;;;;;;;;5092328;28;20072;-64
2021/03/29 01:37:26;;;;;;;7.95;3.47;;;;;;;;;;5094835;28;20073;-63
2021/03/29 01:40:13;;;;;;;10.10;3.47;;;;;;;;;;5113692;28;20074;-63
2021/03/29 01:42:58;;;;;;;6.47;2.97;;;;;;;;;;5112823;28;20131;-64
2021/03/29 01:45:44;;;;;;;13.23;3.70;;;;;;;;;;5112669;28;20043;-64
2021/03/29 01:48:29;;;;;;;6.53;2.83;;;;;;;;;;5112601;28;20493;-64
2021/03/29 01:51:15;;;;;;;10.70;3.35;;;;;;;;;;5093235;28;20433;-64
2021/03/29 01:54:01;;;;;;;9.18;3.47;;;;;;;;;;5104547;28;20413;-63
2021/03/29 01:56:47;;;;;;;8.90;3.03;;;;;;;;;;5112472;28;20189;-63
2021/03/29 01:59:32;;;;;;;10.27;3.40;;;;;;;;;;5113490;28;20466;-63
2021/03/29 02:02:17;;;;;;;7.63;3.03;;;;;;;;;;5113084;28;20046;-64
2021/03/29 02:05:06;;;;;;;7.40;3.80;;;;;;;;;;5100228;28;20044;-64
2021/03/29 02:07:51;;;;;;;9.10;3.55;;;;;;;;;;5091973;28;20043;-64
2021/03/29 02:10:37;;;;;;;10.27;4.22;;;;;;;;;;5093094;28;20048;-63
2021/03/29 02:13:49;;;;;;;8.07;3.67;;;;;;;;;;5113122;28;20104;-64
2021/03/29 02:16:34;;;;;;;8.05;3.50;;;;;;;;;;5091844;28;20036;-64
2021/03/29 02:19:19;;;;;;;6.90;3.80;;;;;;;;;;5091650;28;20036;-64
2021/03/29 02:22:05;;;;;;;8.68;3.50;;;;;;;;;;5092563;28;20081;-64
2021/03/29 02:24:50;;;;;;;11.05;4.53;;;;;;;;;;5097262;28;20066;-64
2021/03/29 02:27:36;;;;;;;11.20;4.30;;;;;;;;;;5109999;28;20402;-63
2021/03/29 02:30:25;;;;;;;8.73;4.00;;;;;;;;;;5111980;28;20047;-63
2021/03/29 02:33:11;;;;;;;12.50;3.88;;;;;;;;;;5112968;28;20063;-64
2021/03/29 02:35:56;;;;;;;12.02;4.28;;;;;;;;;;5111888;28;20135;-64
2021/03/29 02:38:42;;;;;;;9.02;4.30;;;;;;;;;;5112712;28;20036;-64
2021/03/29 02:41:28;;;;;;;12.43;4.63;;;;;;;;;;5112756;28;20066;-64
2021/03/29 02:44:14;;;;;;;9.50;4.22;;;;;;;;;;5112562;28;20141;-64
2021/03/29 02:47:03;;;;;;;11.23;4.57;;;;;;;;;;5096115;28;20058;-64
2021/03/29 02:49:52;;;;;;;10.77;4.57;;;;;;;;;;5092369;28;20056;-63
2021/03/29 02:52:37;;;;;;;10.18;4.22;;;;;;;;;;5090443;28;20054;-64
2021/03/29 02:55:23;;;;;;;9.90;4.07;;;;;;;;;;5091059;28;20044;-65
2021/03/29 02:58:08;;;;;;;12.13;4.18;;;;;;;;;;5092244;28;20036;-65
2021/03/29 03:00:53;;;;;;;9.50;4.18;;;;;;;;;;5090932;28;20044;-64
2021/03/29 03:03:39;;;;;;;9.85;4.10;;;;;;;;;;5092075;28;20090;-64
2021/03/29 03:06:24;;;;;;;10.25;4.82;;;;;;;;;;5095949;28;20094;-63
2021/03/29 03:09:12;;;;;;;8.30;3.60;;;;;;;;;;5112358;28;20490;-63
2021/03/29 03:11:59;;;;;;;10.60;4.55;;;;;;;;;;5111316;28;20044;-65
2021/03/29 03:14:44;;;;;;;9.93;4.55;;;;;;;;;;5112085;28;20460;-63
2021/03/29 03:17:29;;;;;;;10.35;4.63;;;;;;;;;;5099698;28;20044;-64
2021/03/29 03:20:16;;;;;;;11.65;5.45;;;;;;;;;;5091011;28;20040;-63
2021/03/29 03:23:02;;;;;;;15.05;4.97;;;;;;;;;;5100026;28;20036;-64
2021/03/29 03:25:47;;;;;;;7.05;4.60;;;;;;;;;;5112109;28;20051;-64
2021/03/29 03:28:33;;;;;;;11.65;4.70;;;;;;;;;;5113980;28;20043;-63
2021/03/29 03:31:18;;;;;;;11.75;4.90;;;;;;;;;;5116375;28;20054;-64
2021/03/29 03:34:04;;;;;;;14.57;5.13;;;;;;;;;;5116343;28;20184;-64
2021/03/29 03:36:49;;;;;;;15.07;5.20;;;;;;;;;;5114911;28;20093;-63
2021/03/29 03:39:34;;;;;;;9.48;5.03;;;;;;;;;;5096061;28;20513;-64
2021/03/29 03:42:19;;;;;;;13.98;5.20;;;;;;;;;;5103739;28;20044;-63
2021/03/29 03:45:05;;;;;;;11.20;5.30;;;;;;;;;;5114720;28;20058;-63
2021/03/29 03:47:50;;;;;;;9.63;5.68;;;;;;;;;;5110282;28;20036;-64
2021/03/29 03:50:37;;;;;;;10.73;5.25;;;;;;;;;;5095527;28;20052;-63
2021/03/29 03:53:22;;;;;;;8.95;5.18;;;;;;;;;;5094645;28;20056;-64
2021/03/29 03:56:08;;;;;;;14.00;6.97;;;;;;;;;;5094358;28;20101;-64
2021/03/29 03:58:53;;;;;;;11.13;5.82;;;;;;;;;;5106636;28;20130;-64
2021/03/29 04:01:45;;;;;;;13.30;5.88;;;;;;;;;;5112893;28;20451;-64
2021/03/29 04:04:31;;;;;;;14.73;5.82;;;;;;;;;;5114597;28;20067;-63
2021/03/29 04:07:16;;;;;;;12.57;6.93;;;;;;;;;;5115636;28;20043;-64
2021/03/29 04:10:09;;;;;;;9.32;5.53;;;;;;;;;;5096111;28;20048;-64
2021/03/29 04:12:56;;;;;;;12.70;6.82;;;;;;;;;;5095183;28;20036;-63
2021/03/29 04:15:41;;;;;;;10.77;6.32;;;;;;;;;;5094877;28;20040;-64
2021/03/29 04:18:28;;;;;;;15.10;6.25;;;;;;;;;;5096186;28;20040;-65
2021/03/29 04:21:14;;;;;;;15.63;6.63;;;;;;;;;;5115419;28;20051;-63
2021/03/29 04:24:01;;;;;;;13.35;6.35;;;;;;;;;;5115356;28;20035;-63
2021/03/29 04:26:46;;;;;;;15.95;6.53;;;;;;;;;;5115114;28;20497;-64
2021/03/29 04:29:32;;;;;;;18.38;6.82;;;;;;;;;;5113786;28;20075;-66
2021/03/29 04:32:17;;;;;;;13.20;6.70;;;;;;;;;;5115166;28;20051;-65
2021/03/29 04:35:03;;;;;;;11.65;6.13;;;;;;;;;;5114793;28;20044;-66
2021/03/29 04:37:49;;;;;;;17.20;6.50;;;;;;;;;;5115249;28;20051;-64
2021/03/29 04:40:35;;;;;;;13.10;5.97;;;;;;;;;;5100377;28;20043;-64
2021/03/29 04:43:20;;;;;;;12.77;6.10;;;;;;;;;;5094441;28;20063;-66
2021/03/29 04:46:05;;;;;;;13.90;5.70;;;;;;;;;;5094391;28;20051;-65
2021/03/29 04:48:51;;;;;;;11.82;5.95;;;;;;;;;;5094484;28;20051;-64
2021/03/29 04:51:36;;;;;;;12.48;5.63;;;;;;;;;;5113106;28;20051;-64
2021/03/29 04:54:21;;;;;;;13.13;5.95;;;;;;;;;;5114586;28;20073;-63
2021/03/29 04:57:08;;;;;;;8.95;4.97;;;;;;;;;;5114675;28;20047;-64
2021/03/29 04:59:53;;;;;;;10.30;6.70;;;;;;;;;;5112746;28;20489;-64
2021/03/29 05:02:38;;;;;;;13.50;5.60;;;;;;;;;;5094032;28;20488;-64
2021/03/29 05:05:24;;;;;;;10.18;5.43;;;;;;;;;;5093927;28;20048;-63
2021/03/29 05:08:09;;;;;;;12.45;5.60;;;;;;;;;;5094082;28;20524;-65
2021/03/29 05:10:54;;;;;;;13.65;5.90;;;;;;;;;;5101079;28;20077;-64
2021/03/29 05:13:40;;;;;;;16.40;6.85;;;;;;;;;;5114515;28;20097;-64
2021/03/29 05:16:25;;;;;;;10.40;5.45;;;;;;;;;;5114080;28;20051;-65
2021/03/29 05:19:11;;;;;;;11.05;5.78;;;;;;;;;;5096780;28;20052;-66
2021/03/29 05:21:56;;;;;;;14.98;5.20;;;;;;;;;;5101908;28;20043;-66
2021/03/29 05:24:41;;;;;;;11.85;5.15;;;;;;;;;;5104210;28;20036;-65
2021/03/29 05:27:27;;;;;;;8.57;5.28;;;;;;;;;;5104421;28;20050;-66
2021/03/29 05:30:13;;;;;;;14.82;5.93;;;;;;;;;;5103054;28;20040;-65
2021/03/29 05:32:58;;;;;;;11.32;5.55;;;;;;;;;;5101848;28;20043;-66
2021/03/29 05:35:44;;;;;;;11.85;5.60;;;;;;;;;;5102832;28;20510;-66
2021/03/29 05:38:32;;;;;;;10.57;6.10;;;;;;;;;;5096877;28;20056;-65
2021/03/29 05:41:17;;;;;;;12.60;5.43;;;;;;;;;;5113063;28;20109;-66
2021/03/29 05:44:03;;;;;;;11.40;5.55;;;;;;;;;;5110941;28;20504;-66
2021/03/29 05:46:48;;;;;;;9.82;5.00;;;;;;;;;;5104293;28;20046;-65
2021/03/29 05:49:36;;;;;;;9.07;5.07;;;;;;;;;;5104114;28;20122;-66
2021/03/29 05:52:21;;;;;;;11.07;6.07;;;;;;;;;;5101239;28;20043;-66
2021/03/29 05:55:11;;;;;;;9.98;5.47;;;;;;;;;;5095492;28;20517;-66
2021/03/29 06:00:45;;;;;;;12.93;5.22;;;;;;;;;;5103336;28;20127;-66
2021/03/29 06:03:37;;;;;;;10.13;4.70;;;;;;;;;;5107948;22;20047;-63
2021/03/29 06:06:22;;;;;;;12.65;4.85;;;;;;;;;;5092710;28;20040;-63
2021/03/29 06:09:08;;;;;;;10.18;5.28;;;;;;;;;;5092839;28;20051;-63
2021/03/29 06:11:54;;;;;;;10.93;5.38;;;;;;;;;;5092881;28;20048;-63
2021/03/29 06:14:39;;;;;;;11.82;5.20;;;;;;;;;;5091475;28;20044;-63
2021/03/29 06:17:24;;;;;;;8.93;4.32;;;;;;;;;;5077688;28;20129;-64
2021/03/29 06:20:10;;;;;;;12.82;4.88;;;;;;;;;;5081990;28;20487;-63
2021/03/29 06:22:55;;;;;;;11.73;5.30;;;;;;;;;;5077153;28;20040;-63
2021/03/29 06:25:40;;;;;;;16.65;5.95;;;;;;;;;;5065885;28;20498;-64
2021/03/29 06:28:28;;;;;;;12.48;5.05;;;;;;;;;;5075352;28;20042;-63
2021/03/29 06:31:32;;;;;;;8.65;5.03;;;;;;;;;;5091507;28;20055;-63
2021/03/29 06:34:18;;;;;;;10.65;5.03;;;;;;;;;;5091853;28;20078;-63
2021/03/29 06:37:06;;;;;;;10.18;4.43;;;;;;;;;;5077451;28;20113;-63
2021/03/29 06:39:51;;;;;;;10.73;5.20;;;;;;;;;;5092276;28;20052;-63
2021/03/29 06:42:37;;;;;;;11.35;4.05;;;;;;;;;;5092490;28;20052;-63
2021/03/29 06:45:23;;;;;;;15.13;5.15;;;;;;;;;;5060033;28;20044;-63
2021/03/29 06:48:18;;;;;;;8.80;4.30;;;;;;;;;;5072226;28;20509;-63
2021/03/29 06:51:03;;;;;;;10.40;4.40;;;;;;;;;;5073370;28;20045;-63
2021/03/29 06:53:48;;;;;;;11.63;4.38;;;;;;;;;;5056783;28;20046;-63
2021/03/29 06:56:34;;;;;;;12.27;5.65;;;;;;;;;;5071824;28;20044;-63
2021/03/29 06:59:22;;;;;;;10.20;4.30;;;;;;;;;;5072104;28;20045;-63
2021/03/29 07:02:07;;;;;;;10.73;4.50;;;;;;;;;;5072416;28;20074;-63
2021/03/29 07:04:53;;;;;;;12.70;4.57;;;;;;;;;;5056694;28;20045;-63
2021/03/29 07:07:38;;;;;;;11.90;3.80;;;;;;;;;;5072070;28;20070;-63
2021/03/29 07:10:25;;;;;;;11.60;4.10;;;;;;;;;;5058740;28;20067;-63
2021/03/29 07:13:10;;;;;;;15.43;4.82;;;;;;;;;;5091937;28;20413;-64
2021/03/29 07:15:59;;;;;;;9.65;3.90;;;;;;;;;;5091948;28;20413;-64
2021/03/29 07:18:44;;;;;;;10.48;5.05;;;;;;;;;;5077116;28;20188;-64
2021/03/29 07:21:29;;;;;;;12.10;4.40;;;;;;;;;;5091275;28;20154;-64
2021/03/29 07:24:15;;;;;;;11.52;4.20;;;;;;;;;;5091711;28;20044;-64
2021/03/29 07:27:00;;;;;;;15.02;4.47;;;;;;;;;;5091994;28;20174;-63
2021/03/29 07:29:49;;;;;;;15.07;4.10;;;;;;;;;;5092031;28;20048;-64
2021/03/29 07:32:35;;;;;;;13.13;4.55;;;;;;;;;;5090369;28;20051;-64
2021/03/29 07:35:21;;;;;;;12.23;4.32;;;;;;;;;;5091693;28;20051;-64
2021/03/29 07:38:06;;;;;;;11.75;4.15;;;;;;;;;;5092248;28;20195;-62
2021/03/29 07:40:55;;;;;;;12.32;4.03;;;;;;;;;;5076622;28;20460;-64
2021/03/29 07:43:41;;;;;;;8.18;3.70;;;;;;;;;;5071622;28;20040;-64
2021/03/29 07:46:38;;;;;;;9.52;3.97;;;;;;;;;;5069482;28;20552;-64
2021/03/29 07:49:42;;;;;;;12.93;4.05;;;;;;;;;;5093110;28;20046;-64
2021/03/29 07:52:28;;;;;;;10.35;3.30;;;;;;;;;;5092137;28;20131;-63
2021/03/29 07:55:39;;;;;;;8.88;3.63;;;;;;;;;;5092195;28;20083;-63
2021/03/29 07:58:26;;;;;;;10.63;4.10;;;;;;;;;;5092820;28;20145;-64
2021/03/29 08:01:13;;;;;;;17.80;4.57;;;;;;;;;;5072011;28;20459;-63
2021/03/29 08:04:56;;;;;;;16.50;4.25;;;;;;;;;;5149545;27;20370;-62
2021/03/29 08:07:47;;;;;;;15.55;4.10;;;;;;;;;;5137869;27;20043;-62
2021/03/29 08:10:51;;;;;;;11.73;4.10;;;;;;;;;;5131014;27;20080;-62
2021/03/29 08:13:37;;;;;;;10.48;3.95;;;;;;;;;;5144748;27;20053;-63
2021/03/29 08:16:25;;;;;;;14.20;4.82;;;;;;;;;;5144591;27;20047;-62
2021/03/29 08:19:21;;;;;;;9.48;3.50;;;;;;;;;;5117738;27;20660;-62
2021/03/29 08:22:15;;;;;;;13.00;3.97;;;;;;;;;;5128660;27;20054;-62
2021/03/29 08:25:04;;;;;;;11.90;4.22;;;;;;;;;;5126950;27;20137;-63
2021/03/29 08:27:55;;;;;;;9.75;4.05;;;;;;;;;;5138243;27;20043;-62
2021/03/29 08:30:41;;;;;;;17.13;4.90;;;;;;;;;;5148023;27;20042;-64
2021/03/29 08:33:26;;;;;;;17.02;4.82;;;;;;;;;;5130023;27;20050;-64
2021/03/29 08:36:11;;;;;;;11.75;4.25;;;;;;;;;;5128678;28;20132;-63
2021/03/29 08:38:57;;;;;;;14.32;3.72;;;;;;;;;;5108410;28;20062;-64
2021/03/29 08:41:44;;;;;;;13.68;4.35;;;;;;;;;;5114586;27;20068;-63
2021/03/29 08:44:29;;;;;;;12.57;4.40;;;;;;;;;;5126885;28;20051;-66
2021/03/29 08:47:16;;;;;;;11.30;4.38;;;;;;;;;;5131904;27;20042;-67
2021/03/29 08:50:04;;;;;;;12.77;4.03;;;;;;;;;;5140954;27;20094;-65
2021/03/29 08:52:57;;;;;;;11.93;4.07;;;;;;;;;;5123119;27;20131;-66
2021/03/29 08:55:43;;;;;;;13.00;4.82;;;;;;;;;;5129261;27;20062;-64
2021/03/29 08:58:28;;;;;;;9.60;4.43;;;;;;;;;;5129742;27;20121;-64
2021/03/29 09:01:13;;;;;;;19.85;4.20;;;;;;;;;;5128510;27;20549;-64
2021/03/29 09:04:05;;;;;;;12.30;4.68;;;;;;;;;;5120449;27;20057;-64
2021/03/29 09:06:54;;;;;;;10.63;4.55;;;;;;;;;;5139313;27;20047;-63
2021/03/29 09:09:42;;;;;;;14.57;4.95;;;;;;;;;;5140999;27;20104;-64
2021/03/29 09:12:33;;;;;;;14.60;4.47;;;;;;;;;;5127582;28;20047;-63
2021/03/29 09:15:18;;;;;;;13.82;4.30;;;;;;;;;;5119146;27;20046;-64
2021/03/29 09:18:04;;;;;;;12.70;4.32;;;;;;;;;;5115375;28;20051;-63
2021/03/29 09:20:50;;;;;;;16.42;4.35;;;;;;;;;;5115374;28;20497;-64
2021/03/29 09:23:36;;;;;;;17.20;4.35;;;;;;;;;;5094939;28;20044;-64
2021/03/29 09:26:25;;;;;;;16.77;4.95;;;;;;;;;;5094602;28;20134;-63
2021/03/29 09:29:33;;;;;;;12.30;4.05;;;;;;;;;;5094741;28;20060;-63
2021/03/29 09:32:19;;;;;;;15.48;4.90;;;;;;;;;;5094042;28;20048;-65
2021/03/29 09:35:05;;;;;;;17.30;4.93;;;;;;;;;;5094325;28;20055;-64
2021/03/29 09:37:50;;;;;;;17.58;5.40;;;;;;;;;;5093793;28;20130;-63
2021/03/29 09:40:36;;;;;;;13.65;4.55;;;;;;;;;;5094690;28;20082;-64
2021/03/29 09:43:21;;;;;;;13.35;4.82;;;;;;;;;;5108359;28;20424;-63
2021/03/29 09:46:07;;;;;;;11.48;4.70;;;;;;;;;;5114727;28;20040;-64
2021/03/29 09:49:04;;;;;;;13.45;5.22;;;;;;;;;;5114890;28;20054;-63
2021/03/29 09:51:50;;;;;;;14.95;5.65;;;;;;;;;;5113997;28;20196;-63
2021/03/29 09:54:37;;;;;;;16.02;5.20;;;;;;;;;;5093941;28;20036;-63
2021/03/29 09:57:44;;;;;;;16.35;5.88;;;;;;;;;;5093472;28;20051;-64
2021/03/29 10:00:29;;;;;;;17.45;5.43;;;;;;;;;;5094386;28;20051;-63
2021/03/29 10:03:21;;;;;;;16.63;5.90;;;;;;;;;;5099801;28;20631;-64
2021/03/29 10:06:16;;;;;;;16.50;6.40;;;;;;;;;;5113070;27;20131;-65
2021/03/29 10:09:02;;;;;;;13.63;5.38;;;;;;;;;;5122080;27;20051;-63
2021/03/29 10:11:51;;;;;;;16.63;5.82;;;;;;;;;;5125401;27;20054;-64
2021/03/29 10:14:39;;;;;;;15.65;4.88;;;;;;;;;;5117372;27;20043;-64
2021/03/29 10:17:26;;;;;;;18.85;5.85;;;;;;;;;;5123337;27;20176;-64
2021/03/29 10:20:12;;;;;;;13.93;5.80;;;;;;;;;;5120545;27;20047;-64
2021/03/29 10:23:07;;;;;;;20.58;5.53;;;;;;;;;;5117090;27;20043;-64
2021/03/29 10:26:11;;;;;;;12.50;4.93;;;;;;;;;;5116361;27;20043;-64
2021/03/29 10:28:56;;;;;;;15.68;5.70;;;;;;;;;;5121849;27;20048;-64
2021/03/29 10:31:41;;;;;;;13.73;4.30;;;;;;;;;;5122407;27;20047;-64
2021/03/29 10:34:27;;;;;;;17.52;4.93;;;;;;;;;;5123273;27;20134;-64
2021/03/29 10:37:23;;;;;;;16.05;5.55;;;;;;;;;;5113333;28;20044;-64
2021/03/29 10:40:08;;;;;;;10.48;4.55;;;;;;;;;;5113288;28;20043;-64
2021/03/29 10:42:54;;;;;;;15.63;5.07;;;;;;;;;;5113410;28;20043;-64
2021/03/29 10:45:40;;;;;;;12.52;4.78;;;;;;;;;;5113363;27;20043;-64
2021/03/29 10:48:25;;;;;;;16.23;5.38;;;;;;;;;;5132099;27;20070;-64
2021/03/29 10:51:10;;;;;;;12.95;4.90;;;;;;;;;;5091849;28;20055;-63
2021/03/29 10:53:55;;;;;;;17.23;5.72;;;;;;;;;;5093478;28;20071;-65
2021/03/29 10:56:41;;;;;;;18.83;5.00;;;;;;;;;;5093557;28;20051;-64
2021/03/29 10:59:26;;;;;;;16.63;5.65;;;;;;;;;;5111515;27;20463;-64
2021/03/29 11:02:12;;;;;;;15.25;5.40;;;;;;;;;;5133951;27;20118;-64
2021/03/29 11:04:57;;;;;;;13.90;4.75;;;;;;;;;;5110304;28;20071;-63
2021/03/29 11:07:42;;;;;;;12.35;4.80;;;;;;;;;;5127114;27;20133;-65
2021/03/29 11:10:28;;;;;;;14.93;5.10;;;;;;;;;;5092644;28;20131;-64
2021/03/29 11:13:14;;;;;;;12.90;5.70;;;;;;;;;;5122966;27;20087;-64
2021/03/29 11:16:00;;;;;;;15.35;5.72;;;;;;;;;;5121898;27;20414;-65
2021/03/29 11:18:45;;;;;;;17.05;6.43;;;;;;;;;;5113207;27;20051;-64
2021/03/29 11:21:33;;;;;;;12.50;5.68;;;;;;;;;;5132546;27;20050;-65
2021/03/29 11:24:18;;;;;;;17.45;5.10;;;;;;;;;;5133606;27;20126;-65
2021/03/29 11:27:04;;;;;;;14.85;4.80;;;;;;;;;;5098478;28;20120;-64
2021/03/29 11:29:49;;;;;;;18.05;5.43;;;;;;;;;;5112447;28;20489;-64
2021/03/29 11:32:34;;;;;;;16.58;4.95;;;;;;;;;;5112864;28;20055;-65
2021/03/29 11:35:19;;;;;;;16.27;4.97;;;;;;;;;;5106948;28;20036;-63
2021/03/29 11:38:05;;;;;;;19.88;5.88;;;;;;;;;;5092547;28;20048;-64
2021/03/29 11:40:50;;;;;;;12.63;4.68;;;;;;;;;;5092635;28;20123;-65
2021/03/29 11:43:36;;;;;;;11.85;4.63;;;;;;;;;;5091628;28;20055;-63
2021/03/29 11:46:21;;;;;;;15.82;5.40;;;;;;;;;;5103111;28;20501;-64
2021/03/29 11:49:06;;;;;;;15.05;5.57;;;;;;;;;;5113203;28;20044;-64
2021/03/29 11:51:51;;;;;;;16.50;4.97;;;;;;;;;;5112474;28;20039;-65
2021/03/29 11:54:37;;;;;;;17.42;5.70;;;;;;;;;;5110663;28;20071;-64
2021/03/29 11:57:22;;;;;;;13.82;5.30;;;;;;;;;;5112352;28;20529;-64
2021/03/29 12:00:11;;;;;;;13.73;5.30;;;;;;;;;;5112275;28;20081;-64
2021/03/29 12:05:58;;;;;;;18.25;6.22;;;;;;;;;;5105091;28;20048;-64
2021/03/29 12:08:52;;;;;;;14.07;5.40;;;;;;;;;;5116693;28;20047;-64
2021/03/29 12:11:53;;;;;;;14.55;6.35;;;;;;;;;;5111829;28;20504;-64
2021/03/29 12:14:39;;;;;;;17.13;5.40;;;;;;;;;;5110989;28;20039;-64
2021/03/29 12:17:25;;;;;;;16.42;5.70;;;;;;;;;;5112086;28;20449;-64
2021/03/29 12:20:12;;;;;;;16.63;6.60;;;;;;;;;;5091988;28;20044;-63
2021/03/29 12:22:57;;;;;;;16.48;6.45;;;;;;;;;;5091738;28;20410;-64
2021/03/29 12:25:53;;;;;;;16.70;5.38;;;;;;;;;;5090533;28;20062;-64
2021/03/29 12:28:42;;;;;;;16.55;6.40;;;;;;;;;;5090881;28;20417;-64
2021/03/29 12:31:27;;;;;;;12.88;5.93;;;;;;;;;;5105910;28;20383;-64
2021/03/29 12:34:13;;;;;;;15.70;5.68;;;;;;;;;;5110168;28;20058;-64
2021/03/29 12:36:59;;;;;;;12.55;6.22;;;;;;;;;;5103322;28;20047;-64
2021/03/29 12:39:59;;;;;;;14.13;5.65;;;;;;;;;;5099523;28;20063;-64
2021/03/29 12:45:42;;;;;;;12.13;5.88;;;;;;;;;;5111621;28;20096;-64
2021/03/29 12:48:28;;;;;;;19.77;7.45;;;;;;;;;;5111868;28;20079;-64
2021/03/29 12:51:14;;;;;;;12.85;5.70;;;;;;;;;;5100629;28;20044;-63
2021/03/29 12:54:09;;;;;;;14.27;6.18;;;;;;;;;;5095408;28;20123;-64
2021/03/29 12:57:00;;;;;;;13.57;6.03;;;;;;;;;;5097179;28;20044;-64
2021/03/29 12:59:45;;;;;;;17.85;6.57;;;;;;;;;;5068787;28;20063;-65
2021/03/29 13:02:31;;;;;;;16.60;5.97;;;;;;;;;;5064776;28;20049;-65
2021/03/29 13:05:26;;;;;;;13.15;5.65;;;;;;;;;;5067762;28;20051;-65
2021/03/29 13:08:14;;;;;;;12.82;5.15;;;;;;;;;;5062756;28;20164;-65
2021/03/29 13:11:05;;;;;;;13.82;5.88;;;;;;;;;;5073344;28;20040;-65
2021/03/29 13:13:51;;;;;;;17.13;5.70;;;;;;;;;;5068929;28;20045;-65
2021/03/29 13:16:37;;;;;;;18.48;6.03;;;;;;;;;;5081765;28;20044;-65
2021/03/29 13:19:22;;;;;;;13.30;6.03;;;;;;;;;;5069008;28;20044;-65
2021/03/29 13:22:07;;;;;;;12.73;5.60;;;;;;;;;;5057657;28;20060;-65
2021/03/29 13:24:52;;;;;;;12.93;5.25;;;;;;;;;;5059584;28;20053;-65
2021/03/29 13:27:38;;;;;;;15.07;5.35;;;;;;;;;;5062446;28;20080;-65
2021/03/29 13:30:24;;;;;;;14.45;6.20;;;;;;;;;;5074273;28;20036;-64
2021/03/29 13:33:09;;;;;;;11.02;4.72;;;;;;;;;;5075942;28;20486;-65
2021/03/29 13:35:54;;;;;;;14.90;5.50;;;;;;;;;;5074268;28;20064;-65
2021/03/29 13:38:39;;;;;;;13.63;5.63;;;;;;;;;;5074487;28;20060;-65
2021/03/29 13:41:25;;;;;;;10.43;5.18;;;;;;;;;;5073318;28;20509;-65
2021/03/29 13:44:12;;;;;;;10.25;5.50;;;;;;;;;;5057236;28;20395;-65
2021/03/29 13:46:57;;;;;;;17.55;5.95;;;;;;;;;;5074075;28;20052;-65
2021/03/29 13:49:42;;;;;;;13.45;5.40;;;;;;;;;;5074451;28;20068;-66
2021/03/29 13:52:27;;;;;;;15.73;5.88;;;;;;;;;;5072345;28;20083;-65
2021/03/29 13:55:16;;;;;;;15.02;5.85;;;;;;;;;;5057757;28;20045;-65
2021/03/29 13:58:02;;;;;;;12.98;5.30;;;;;;;;;;5073870;28;20410;-65
2021/03/29 14:00:47;;;;;;;13.80;6.20;;;;;;;;;;5066589;28;20041;-65
2021/03/29 14:03:32;;;;;;;12.55;5.47;;;;;;;;;;5053904;28;20041;-65
2021/03/29 14:06:18;;;;;;;13.55;6.25;;;;;;;;;;5053728;28;20116;-65
2021/03/29 14:09:03;;;;;;;13.20;5.32;;;;;;;;;;5053847;28;20056;-64
2021/03/29 14:11:49;;;;;;;17.35;5.90;;;;;;;;;;5066929;28;20044;-65
2021/03/29 14:14:35;;;;;;;16.55;6.07;;;;;;;;;;5073271;28;20644;-66
2021/03/29 14:17:21;;;;;;;18.63;5.45;;;;;;;;;;5073589;28;20044;-66
2021/03/29 14:20:07;;;;;;;15.05;5.03;;;;;;;;;;5073683;28;20048;-65
2021/03/29 14:22:52;;;;;;;12.25;5.65;;;;;;;;;;5072813;28;20041;-66
2021/03/29 14:25:37;;;;;;;13.27;5.60;;;;;;;;;;5073421;28;20049;-65
2021/03/29 14:28:23;;;;;;;17.20;5.55;;;;;;;;;;5073335;28;20053;-65
2021/03/29 14:31:09;;;;;;;12.93;5.72;;;;;;;;;;5070962;28;20131;-65
2021/03/29 14:33:54;;;;;;;11.20;5.53;;;;;;;;;;5054426;28;20061;-66
2021/03/29 14:37:13;;;;;;;12.57;6.22;;;;;;;;;;5060644;28;20048;-64
2021/03/29 14:39:59;;;;;;;10.40;5.15;;;;;;;;;;5073420;28;20049;-66
2021/03/29 14:42:47;;;;;;;15.52;5.68;;;;;;;;;;5072475;28;20114;-65
2021/03/29 14:45:32;;;;;;;11.73;5.30;;;;;;;;;;5052769;28;20057;-65
2021/03/29 14:48:18;;;;;;;12.35;4.65;;;;;;;;;;5053048;28;20072;-65
2021/03/29 14:51:03;;;;;;;10.55;4.50;;;;;;;;;;5061281;28;20132;-65
2021/03/29 14:53:48;;;;;;;12.80;5.03;;;;;;;;;;5072176;28;20102;-65
2021/03/29 14:56:34;;;;;;;17.70;5.57;;;;;;;;;;5072341;28;20040;-64
2021/03/29 14:59:23;;;;;;;9.80;4.70;;;;;;;;;;5072716;28;20562;-64
2021/03/29 15:02:08;;;;;;;14.18;4.80;;;;;;;;;;5054361;28;20044;-65
2021/03/29 15:04:56;;;;;;;12.82;5.13;;;;;;;;;;5052696;28;20045;-65
2021/03/29 15:07:41;;;;;;;10.95;4.75;;;;;;;;;;5052653;28;20037;-66
2021/03/29 15:10:27;;;;;;;9.70;4.18;;;;;;;;;;5054604;28;20045;-65
2021/03/29 15:13:12;;;;;;;17.17;5.40;;;;;;;;;;5072223;28;20082;-65
2021/03/29 15:15:57;;;;;;;12.63;4.90;;;;;;;;;;5072328;28;20072;-66
2021/03/29 15:18:43;;;;;;;12.18;5.47;;;;;;;;;;5072494;28;20048;-65
2021/03/29 15:21:28;;;;;;;11.38;5.22;;;;;;;;;;5070919;28;20456;-65
2021/03/29 15:24:14;;;;;;;17.13;5.78;;;;;;;;;;5072336;28;20056;-65
2021/03/29 15:26:59;;;;;;;14.20;5.03;;;;;;;;;;5072330;28;20044;-64
2021/03/29 15:29:44;;;;;;;9.52;4.85;;;;;;;;;;5072569;28;20044;-64
2021/03/29 15:32:30;;;;;;;12.23;5.05;;;;;;;;;;5057806;28;20048;-66
2021/03/29 15:35:15;;;;;;;14.63;4.70;;;;;;;;;;5051914;28;20053;-65
2021/03/29 15:38:00;;;;;;;16.77;5.13;;;;;;;;;;5055428;28;20044;-64
2021/03/29 15:40:46;;;;;;;13.57;5.00;;;;;;;;;;5072350;28;20048;-65
2021/03/29 15:43:31;;;;;;;11.07;4.43;;;;;;;;;;5070570;28;20509;-65
2021/03/29 15:46:19;;;;;;;10.30;4.78;;;;;;;;;;5068232;28;20044;-65
2021/03/29 15:49:06;;;;;;;9.25;4.00;;;;;;;;;;5071118;28;20131;-65
2021/03/29 15:51:51;;;;;;;11.88;4.70;;;;;;;;;;5068566;28;20534;-65
2021/03/29 15:54:36;;;;;;;11.95;4.57;;;;;;;;;;5071362;28;20051;-65
2021/03/29 15:57:23;;;;;;;9.60;4.10;;;;;;;;;;5072001;28;20052;-65
2021/03/29 16:00:11;;;;;;;13.13;4.60;;;;;;;;;;5071984;28;20048;-65
2021/03/29 16:03:05;;;;;;;16.60;5.53;;;;;;;;;;5051907;28;20049;-64
2021/03/29 16:05:50;;;;;;;10.00;3.72;;;;;;;;;;5052789;28;20052;-65
2021/03/29 16:08:36;;;;;;;11.85;4.43;;;;;;;;;;5071862;28;20053;-65
2021/03/29 16:11:21;;;;;;;11.38;4.28;;;;;;;;;;5071417;28;20135;-65
2021/03/29 16:14:06;;;;;;;14.95;4.75;;;;;;;;;;5085176;28;20102;-65
2021/03/29 16:16:51;;;;;;;12.57;4.10;;;;;;;;;;5071681;28;20045;-65
2021/03/29 16:19:37;;;;;;;14.25;4.65;;;;;;;;;;5071721;28;20045;-65
2021/03/29 16:22:22;;;;;;;13.25;4.75;;;;;;;;;;5059336;28;20127;-64
2021/03/29 16:25:11;;;;;;;11.60;4.60;;;;;;;;;;5053113;28;20048;-65
2021/03/29 16:27:57;;;;;;;11.32;4.65;;;;;;;;;;5055572;28;20480;-64
2021/03/29 16:30:42;;;;;;;12.98;3.95;;;;;;;;;;5055686;28;20124;-65
2021/03/29 16:33:27;;;;;;;12.50;4.55;;;;;;;;;;5073786;28;20044;-65
2021/03/29 16:36:13;;;;;;;12.18;3.90;;;;;;;;;;5072428;28;20566;-65
2021/03/29 16:38:58;;;;;;;12.93;4.10;;;;;;;;;;5055365;28;20049;-65
2021/03/29 16:41:44;;;;;;;12.85;4.18;;;;;;;;;;5056334;28;20045;-65